createdAt,value
2023-05-16T00:00:17.181Z,12.93
2023-05-16T00:02:43.894Z,12.74
2023-05-16T00:05:10.703Z,12.31
2023-05-16T00:07:37.264Z,12.21
2023-05-16T00:10:04.313Z,11.86
2023-05-16T00:12:30.889Z,11.93
2023-05-16T00:14:57.459Z,11.84
2023-05-16T00:17:25.545Z,12.21
2023-05-16T00:19:52.131Z,12.45
2023-05-16T00:22:18.670Z,12.57
2023-05-16T00:24:45.374Z,12.29
2023-05-16T00:27:11.903Z,11.58
2023-05-16T00:29:38.499Z,11.41
2023-05-16T00:32:05.776Z,11.51
2023-05-16T00:34:34.047Z,11.15
2023-05-16T00:37:00.790Z,11.31
2023-05-16T00:39:27.435Z,11.32
2023-05-16T00:41:54.311Z,11.36
2023-05-16T00:44:20.831Z,11.28
2023-05-16T00:46:47.516Z,11.60
2023-05-16T00:49:14.508Z,11.51
2023-05-16T00:51:42.775Z,11.76
2023-05-16T00:54:09.318Z,11.87
2023-05-16T00:56:35.958Z,11.80
2023-05-16T00:59:02.606Z,11.73
2023-05-16T01:01:29.524Z,11.89
2023-05-16T01:03:56.621Z,11.51
2023-05-16T01:06:23.276Z,11.20
2023-05-16T01:08:51.217Z,11.42
2023-05-16T01:11:24.864Z,11.15
2023-05-16T01:14:02.763Z,11.02
2023-05-16T01:16:36.866Z,11.20
2023-05-16T01:19:13.932Z,11.08
2023-05-16T01:21:48.318Z,10.84
2023-05-16T01:24:23.484Z,10.95
2023-05-16T01:26:52.584Z,10.79
2023-05-16T01:29:19.297Z,10.92
2023-05-16T01:31:45.862Z,11.14
2023-05-16T01:34:12.653Z,10.65
2023-05-16T01:36:48.120Z,10.77
2023-05-16T01:39:20.557Z,10.76
2023-05-16T01:41:55.232Z,10.37
2023-05-16T01:44:26.755Z,10.31
2023-05-16T01:46:57.941Z,10.41
2023-05-16T01:49:31.324Z,10.18
2023-05-16T01:52:01.923Z,10.05
2023-05-16T01:54:32.401Z,9.98
2023-05-16T01:57:02.618Z,9.85
2023-05-16T01:59:29.363Z,10.06
2023-05-16T02:01:57.796Z,9.71
2023-05-16T02:04:24.458Z,9.72
2023-05-16T02:06:51.670Z,9.55
2023-05-16T02:09:18.615Z,9.57
2023-05-16T02:11:45.124Z,9.59
2023-05-16T02:14:13.081Z,9.51
2023-05-16T02:16:39.808Z,9.60
2023-05-16T02:19:06.509Z,9.65
2023-05-16T02:21:33.128Z,9.72
2023-05-16T02:23:59.749Z,9.56
2023-05-16T02:26:26.381Z,9.60
2023-05-16T02:28:52.942Z,9.69
2023-05-16T02:31:28.053Z,10.11
2023-05-16T02:33:54.797Z,9.98
2023-05-16T02:36:21.426Z,10.06
2023-05-16T02:38:48.023Z,10.02
2023-05-16T02:41:14.613Z,10.12
2023-05-16T02:43:41.242Z,10.00
2023-05-16T02:46:20.777Z,9.89
2023-05-16T02:48:49.145Z,9.96
2023-05-16T02:51:15.816Z,9.89
2023-05-16T02:53:42.400Z,10.04
2023-05-16T02:56:09.056Z,10.18
2023-05-16T02:58:35.877Z,10.00
2023-05-16T03:01:02.622Z,9.98
2023-05-16T03:03:29.479Z,10.16
2023-05-16T03:05:57.460Z,10.29
2023-05-16T03:08:24.142Z,10.48
2023-05-16T03:10:50.840Z,10.18
2023-05-16T03:13:17.626Z,10.05
2023-05-16T03:15:44.754Z,9.96
2023-05-16T03:18:11.616Z,9.96
2023-05-16T03:20:38.513Z,9.93
2023-05-16T03:23:06.504Z,10.22
2023-05-16T03:25:33.169Z,10.11
2023-05-16T03:28:00.188Z,10.34
2023-05-16T03:30:27.020Z,9.79
2023-05-16T03:32:53.634Z,9.84
2023-05-16T03:35:20.416Z,9.97
2023-05-16T03:37:47.318Z,9.83
2023-05-16T03:40:15.481Z,9.93
2023-05-16T03:42:42.031Z,10.08
2023-05-16T03:45:09.379Z,9.67
2023-05-16T03:47:36.071Z,9.72
2023-05-16T03:50:02.998Z,9.75
2023-05-16T03:52:29.543Z,9.50
2023-05-16T03:54:56.183Z,9.68
2023-05-16T03:57:24.104Z,9.90
2023-05-16T03:59:50.838Z,9.34
2023-05-16T04:02:18.880Z,9.59
2023-05-16T04:04:45.904Z,9.47
2023-05-16T04:07:12.612Z,9.35
2023-05-16T04:09:39.500Z,9.15
2023-05-16T04:12:07.037Z,9.24
2023-05-16T04:14:35.606Z,9.19
2023-05-16T04:17:02.348Z,9.11
2023-05-16T04:19:29.262Z,9.16
2023-05-16T04:21:55.822Z,9.39
2023-05-16T04:24:22.400Z,9.42
2023-05-16T04:26:48.977Z,9.49
2023-05-16T04:29:15.555Z,9.66
2023-05-16T04:31:43.542Z,9.36
2023-05-16T04:34:10.325Z,9.66
2023-05-16T04:36:36.909Z,9.73
2023-05-16T04:39:03.792Z,9.72
2023-05-16T04:41:30.353Z,9.90
2023-05-16T04:43:56.964Z,10.11
2023-05-16T04:46:23.632Z,10.55
2023-05-16T04:48:51.571Z,11.06
2023-05-16T04:51:18.282Z,11.27
2023-05-16T04:53:44.841Z,11.12
2023-05-16T04:56:11.507Z,12.18
2023-05-16T04:58:39.247Z,13.59
2023-05-16T05:01:07.009Z,14.30
2023-05-16T05:03:33.696Z,14.88
2023-05-16T05:06:01.635Z,14.69
2023-05-16T05:08:28.557Z,15.87
2023-05-16T05:10:56.408Z,17.50
2023-05-16T05:13:23.101Z,18.99
2023-05-16T05:15:50.042Z,17.30
2023-05-16T05:18:16.990Z,16.93
2023-05-16T05:20:44.321Z,17.21
2023-05-16T05:23:12.316Z,18.26
2023-05-16T05:25:39.596Z,17.75
2023-05-16T05:28:06.235Z,17.65
2023-05-16T05:30:32.876Z,18.06
2023-05-16T05:33:00.010Z,17.26
2023-05-16T05:35:26.770Z,16.64
2023-05-16T05:37:53.627Z,15.98
2023-05-16T05:40:21.627Z,16.79
2023-05-16T05:42:48.398Z,16.07
2023-05-16T05:45:15.493Z,16.44
2023-05-16T05:47:42.489Z,16.48
2023-05-16T05:50:09.873Z,15.10
2023-05-16T05:52:36.467Z,15.05
2023-05-16T05:55:03.342Z,15.03
2023-05-16T05:57:31.323Z,15.06
2023-05-16T05:59:57.852Z,14.48
2023-05-16T06:02:24.507Z,15.49
2023-05-16T06:04:51.099Z,15.81
2023-05-16T06:07:17.645Z,15.93
2023-05-16T06:09:44.191Z,15.53
2023-05-16T06:12:10.734Z,16.43
2023-05-16T06:14:38.753Z,15.96
2023-05-16T06:17:05.573Z,16.83
2023-05-16T06:19:32.124Z,16.00
2023-05-16T06:21:58.720Z,14.96
2023-05-16T06:24:25.287Z,14.25
2023-05-16T06:26:51.914Z,14.14
2023-05-16T06:29:18.339Z,15.01
2023-05-16T06:31:46.582Z,14.55
2023-05-16T06:34:13.179Z,14.46
2023-05-16T06:36:39.761Z,15.19
2023-05-16T06:39:06.297Z,14.61
2023-05-16T06:41:33.028Z,14.33
2023-05-16T06:43:59.670Z,14.46
2023-05-16T06:46:26.175Z,14.57
2023-05-16T06:48:54.216Z,15.29
2023-05-16T06:51:20.866Z,15.69
2023-05-16T06:53:47.530Z,16.69
2023-05-16T06:56:14.097Z,17.08
2023-05-16T06:58:40.676Z,17.23
2023-05-16T07:01:07.315Z,16.00
2023-05-16T07:03:34.277Z,16.99
2023-05-16T07:06:02.341Z,17.48
2023-05-16T07:08:30.921Z,16.65
2023-05-16T07:10:57.515Z,16.56
2023-05-16T07:13:24.117Z,16.04
2023-05-16T07:15:50.754Z,15.75
2023-05-16T07:18:17.319Z,15.29
2023-05-16T07:20:43.876Z,14.83
2023-05-16T07:23:11.928Z,14.32
2023-05-16T07:25:38.718Z,14.46
2023-05-16T07:28:05.602Z,15.70
2023-05-16T07:30:32.227Z,15.50
2023-05-16T07:32:58.847Z,15.65
2023-05-16T07:35:25.597Z,15.40
2023-05-16T07:37:52.837Z,15.67
2023-05-16T07:40:20.876Z,15.99
2023-05-16T07:42:47.598Z,16.04
2023-05-16T07:45:14.203Z,16.62
2023-05-16T07:47:40.934Z,16.71
2023-05-16T07:50:08.303Z,18.03
2023-05-16T07:52:34.962Z,18.10
2023-05-16T07:55:01.754Z,19.15
2023-05-16T07:57:30.072Z,19.39
2023-05-16T07:59:56.725Z,19.22
2023-05-16T08:02:23.636Z,20.02
2023-05-16T08:04:50.374Z,19.98
2023-05-16T08:07:16.983Z,18.88
2023-05-16T08:09:43.595Z,19.58
2023-05-16T08:12:10.675Z,19.28
2023-05-16T08:14:38.586Z,19.03
2023-05-16T08:17:05.394Z,18.32
2023-05-16T08:19:32.034Z,18.63
2023-05-16T08:21:58.808Z,18.69
2023-05-16T08:24:25.445Z,17.31
2023-05-16T08:26:52.048Z,16.95
2023-05-16T08:29:18.667Z,16.82
2023-05-16T08:31:46.706Z,16.18
2023-05-16T08:34:13.520Z,16.22
2023-05-16T08:36:40.174Z,16.24
2023-05-16T08:39:06.955Z,16.42
2023-05-16T08:41:33.714Z,17.09
2023-05-16T08:44:00.442Z,16.96
2023-05-16T08:46:29.325Z,16.77
2023-05-16T08:49:01.545Z,17.98
2023-05-16T08:51:32.986Z,18.56
2023-05-16T08:54:03.262Z,17.77
2023-05-16T08:56:30.085Z,17.00
2023-05-16T08:58:58.064Z,17.47
2023-05-16T09:01:24.718Z,17.26
2023-05-16T09:03:52.095Z,17.57
2023-05-16T09:06:20.111Z,17.61
2023-05-16T09:08:46.738Z,17.77
2023-05-16T09:11:13.368Z,17.15
2023-05-16T09:13:40.063Z,17.30
2023-05-16T09:16:11.524Z,17.43
2023-05-16T09:18:38.428Z,16.59
2023-05-16T09:21:05.797Z,16.98
2023-05-16T09:23:36.955Z,16.61
2023-05-16T09:26:06.315Z,16.79
2023-05-16T09:28:32.936Z,16.93
2023-05-16T09:30:59.531Z,16.90
2023-05-16T09:33:27.615Z,16.94
2023-05-16T09:35:58.504Z,17.41
2023-05-16T09:38:26.117Z,17.48
2023-05-16T09:40:54.225Z,17.45
2023-05-16T09:43:25.414Z,17.73
2023-05-16T09:45:52.688Z,17.46
2023-05-16T09:48:20.977Z,16.63
2023-05-16T09:50:50.114Z,16.95
2023-05-16T09:53:16.893Z,17.77
2023-05-16T09:55:43.994Z,17.70
2023-05-16T09:58:12.025Z,17.65
2023-05-16T10:00:40.970Z,17.46
2023-05-16T10:03:08.646Z,16.59
2023-05-16T10:05:36.542Z,17.78
2023-05-16T10:08:03.954Z,17.71
2023-05-16T10:10:33.474Z,17.33
2023-05-16T10:13:03.498Z,17.10
2023-05-16T10:15:32.064Z,17.85
2023-05-16T10:17:59.663Z,17.77
2023-05-16T10:20:27.416Z,18.01
2023-05-16T10:22:55.747Z,17.48
2023-05-16T10:25:28.542Z,17.11
2023-05-16T10:27:56.228Z,17.00
2023-05-16T10:30:22.853Z,17.37
2023-05-16T10:32:52.172Z,17.45
2023-05-16T10:35:20.098Z,17.78
2023-05-16T10:37:47.911Z,18.44
2023-05-16T10:40:16.139Z,19.38
2023-05-16T10:42:54.149Z,20.46
2023-05-16T10:45:21.616Z,20.17
2023-05-16T10:47:53.860Z,19.28
2023-05-16T10:50:34.157Z,17.69
2023-05-16T10:53:21.208Z,17.53
2023-05-16T10:56:05.299Z,17.24
2023-05-16T10:58:41.483Z,17.58
2023-05-16T11:01:19.361Z,16.88
2023-05-16T11:04:10.462Z,17.72
2023-05-16T11:06:51.269Z,18.25
2023-05-16T11:09:28.194Z,18.33
2023-05-16T11:12:02.077Z,18.09
2023-05-16T11:14:36.606Z,17.60
2023-05-16T11:17:07.593Z,18.31
2023-05-16T11:19:40.769Z,18.04
2023-05-16T11:22:09.152Z,18.03
2023-05-16T11:24:37.529Z,18.36
2023-05-16T11:27:04.681Z,18.28
2023-05-16T11:29:32.578Z,18.12
2023-05-16T11:31:59.889Z,17.63
2023-05-16T11:34:26.806Z,18.01
2023-05-16T11:36:54.882Z,17.57
2023-05-16T11:39:21.688Z,17.94
2023-05-16T11:41:48.996Z,17.94
2023-05-16T11:44:15.638Z,18.72
2023-05-16T11:46:42.499Z,18.42
2023-05-16T11:49:09.914Z,17.95
2023-05-16T11:51:38.246Z,18.17
2023-05-16T11:54:06.809Z,17.52
2023-05-16T11:56:35.666Z,17.15
2023-05-16T11:59:02.708Z,17.55
2023-05-16T12:01:33.522Z,17.69
2023-05-16T12:04:00.241Z,17.39
2023-05-16T12:06:27.231Z,17.05
2023-05-16T12:08:53.891Z,16.73
2023-05-16T12:11:23.357Z,16.01
2023-05-16T12:13:50.245Z,15.36
2023-05-16T12:16:17.037Z,16.04
2023-05-16T12:18:44.064Z,15.87
2023-05-16T12:21:10.882Z,16.46
2023-05-16T12:23:37.502Z,16.05
2023-05-16T12:26:05.522Z,16.26
2023-05-16T12:28:34.187Z,16.04
2023-05-16T12:31:00.836Z,16.63
2023-05-16T12:33:27.834Z,17.31
2023-05-16T12:35:54.594Z,16.75
2023-05-16T12:38:21.711Z,16.89
2023-05-16T12:40:48.396Z,17.48
2023-05-16T12:43:15.963Z,16.89
2023-05-16T12:45:49.869Z,17.49
2023-05-16T12:48:16.539Z,17.85
2023-05-16T12:50:43.234Z,16.89
2023-05-16T12:53:13.838Z,16.68
2023-05-16T12:55:41.354Z,16.70
2023-05-16T12:58:08.416Z,16.81
2023-05-16T13:00:35.365Z,17.31
2023-05-16T13:03:06.799Z,17.85
2023-05-16T13:05:33.924Z,17.64
2023-05-16T13:08:00.841Z,17.51
2023-05-16T13:10:28.186Z,18.02
2023-05-16T13:12:55.057Z,18.50
2023-05-16T13:15:21.672Z,18.14
2023-05-16T13:17:48.280Z,17.99
2023-05-16T13:20:16.314Z,18.36
2023-05-16T13:22:44.678Z,18.59
2023-05-16T13:25:14.969Z,18.78
2023-05-16T13:27:41.811Z,19.04
2023-05-16T13:30:09.233Z,18.20
2023-05-16T13:32:35.995Z,17.62
2023-05-16T13:35:02.595Z,16.51
2023-05-16T13:37:30.538Z,16.77
2023-05-16T13:39:57.170Z,17.78
2023-05-16T13:42:23.818Z,17.92
2023-05-16T13:44:51.188Z,18.13
2023-05-16T13:47:17.780Z,18.44
2023-05-16T13:49:44.497Z,18.27
2023-05-16T13:52:11.040Z,18.20
2023-05-16T13:54:39.021Z,18.21
2023-05-16T13:57:06.037Z,18.25
2023-05-16T14:00:03.431Z,17.82
2023-05-16T14:02:19.425Z,17.60
2023-05-16T14:04:47.848Z,17.77
2023-05-16T14:07:16.188Z,18.03
2023-05-16T14:09:44.135Z,18.32
2023-05-16T14:12:11.226Z,18.36
2023-05-16T14:14:39.146Z,18.13
2023-05-16T14:17:05.910Z,18.24
2023-05-16T14:19:32.682Z,17.64
2023-05-16T14:21:59.474Z,18.04
2023-05-16T14:24:26.078Z,18.03
2023-05-16T14:26:56.737Z,18.55
2023-05-16T14:29:23.353Z,18.82
2023-05-16T14:31:50.002Z,18.03
2023-05-16T14:34:16.651Z,18.20
2023-05-16T14:36:43.285Z,18.61
2023-05-16T14:39:10.112Z,18.50
2023-05-16T14:41:36.779Z,18.45
2023-05-16T14:44:05.104Z,18.74
2023-05-16T14:46:31.876Z,18.53
2023-05-16T14:48:58.479Z,18.42
2023-05-16T14:51:25.058Z,18.36
2023-05-16T14:53:51.841Z,18.66
2023-05-16T14:56:18.464Z,18.01
2023-05-16T14:58:45.039Z,18.12
2023-05-16T15:01:13.252Z,18.02
2023-05-16T15:06:09.398Z,18.51
2023-05-16T15:08:36.027Z,18.57
2023-05-16T15:11:02.637Z,17.55
2023-05-16T15:13:29.307Z,16.61
2023-05-16T15:15:56.013Z,16.77
2023-05-16T15:18:24.038Z,17.11
2023-05-16T15:20:52.014Z,16.86
2023-05-16T15:23:18.719Z,16.13
2023-05-16T15:25:45.307Z,16.68
2023-05-16T15:28:12.264Z,16.29
2023-05-16T15:30:39.057Z,16.65
2023-05-16T15:33:05.870Z,16.97
2023-05-16T15:35:33.978Z,16.42
2023-05-16T15:38:00.833Z,16.86
2023-05-16T15:40:27.950Z,17.14
2023-05-16T15:42:54.567Z,17.68
2023-05-16T15:45:21.448Z,17.32
2023-05-16T15:47:48.131Z,16.73
2023-05-16T15:50:14.790Z,17.19
2023-05-16T15:52:42.933Z,16.68
2023-05-16T15:55:09.898Z,16.39
2023-05-16T15:57:36.599Z,15.97
2023-05-16T16:00:04.617Z,15.99
2023-05-16T16:02:31.450Z,16.13
2023-05-16T16:04:58.264Z,15.68
2023-05-16T16:07:24.886Z,16.05
2023-05-16T16:09:52.955Z,16.53
2023-05-16T16:12:19.647Z,16.77
2023-05-16T16:14:46.348Z,16.90
2023-05-16T16:17:12.959Z,16.73
2023-05-16T16:19:39.526Z,16.88
2023-05-16T16:22:06.156Z,16.69
2023-05-16T16:24:32.805Z,16.66
2023-05-16T16:27:00.785Z,16.83
2023-05-16T16:29:27.639Z,16.68
2023-05-16T16:31:54.467Z,16.27
2023-05-16T16:34:23.110Z,16.58
2023-05-16T16:36:50.165Z,16.22
2023-05-16T16:39:16.852Z,15.90
2023-05-16T16:41:43.626Z,15.77
2023-05-16T16:44:11.646Z,15.86
2023-05-16T16:46:38.680Z,15.82
2023-05-16T16:49:05.533Z,15.83
2023-05-16T16:51:43.890Z,15.55
2023-05-16T16:54:10.753Z,15.62
2023-05-16T16:56:37.433Z,15.73
2023-05-16T16:59:04.053Z,15.97
2023-05-16T17:01:32.192Z,15.59
2023-05-16T17:04:00.230Z,15.57
2023-05-16T17:06:26.895Z,15.93
2023-05-16T17:08:54.496Z,16.30
2023-05-16T17:11:22.269Z,15.93
2023-05-16T17:13:49.038Z,16.07
2023-05-16T17:16:15.702Z,15.75
2023-05-16T17:18:43.944Z,15.81
2023-05-16T17:21:15.609Z,15.37
2023-05-16T17:23:44.142Z,15.22
2023-05-16T17:26:15.377Z,15.29
2023-05-16T17:28:42.297Z,15.50
2023-05-16T17:31:09.053Z,15.28
2023-05-16T17:33:35.797Z,15.04
2023-05-16T17:36:04.351Z,15.01
2023-05-16T17:38:31.860Z,14.99
2023-05-16T17:40:58.569Z,15.27
2023-05-16T17:43:25.547Z,15.35
2023-05-16T17:45:52.124Z,15.13
2023-05-16T17:48:18.803Z,15.11
2023-05-16T17:50:45.367Z,15.17
2023-05-16T17:53:13.415Z,15.13
2023-05-16T17:55:40.024Z,14.81
2023-05-16T17:58:07.213Z,14.84
2023-05-16T18:00:34.107Z,14.98
2023-05-16T18:03:00.784Z,14.97
2023-05-16T18:05:28.217Z,15.15
2023-05-16T18:07:55.014Z,15.17
2023-05-16T18:10:23.271Z,15.28
2023-05-16T18:12:50.436Z,15.01
2023-05-16T18:15:17.106Z,15.03
2023-05-16T18:17:44.013Z,15.09
2023-05-16T18:20:12.008Z,14.68
2023-05-16T18:22:39.853Z,14.70
2023-05-16T18:25:08.145Z,14.91
2023-05-16T18:27:36.527Z,14.74
2023-05-16T18:30:03.974Z,14.69
2023-05-16T18:32:31.478Z,14.61
2023-05-16T18:34:58.489Z,14.69
2023-05-16T18:37:25.278Z,14.60
2023-05-16T18:39:52.284Z,14.55
2023-05-16T18:42:18.945Z,14.66
2023-05-16T18:44:46.998Z,14.39
2023-05-16T18:47:13.623Z,14.66
2023-05-16T18:49:40.359Z,14.60
2023-05-16T18:52:07.555Z,14.30
2023-05-16T18:54:34.724Z,14.26
2023-05-16T18:57:01.482Z,14.44
2023-05-16T18:59:28.105Z,14.33
2023-05-16T19:01:56.145Z,14.20
2023-05-16T19:04:23.035Z,14.07
2023-05-16T19:06:50.228Z,13.84
2023-05-16T19:09:17.248Z,13.85
2023-05-16T19:11:43.853Z,13.85
2023-05-16T19:14:11.235Z,13.74
2023-05-16T19:16:37.901Z,13.97
2023-05-16T19:19:06.134Z,13.72
2023-05-16T19:21:33.102Z,13.75
2023-05-16T19:23:59.787Z,13.46
2023-05-16T19:26:26.665Z,13.33
2023-05-16T19:28:53.448Z,13.41
2023-05-16T19:31:20.534Z,13.39
2023-05-16T19:33:47.264Z,13.70
2023-05-16T19:36:15.374Z,13.61
2023-05-16T19:38:41.969Z,13.61
2023-05-16T19:41:08.723Z,13.74
2023-05-16T19:43:35.736Z,13.78
2023-05-16T19:46:02.460Z,13.79
2023-05-16T19:48:29.269Z,13.74
2023-05-16T19:50:55.981Z,13.73
2023-05-16T19:53:23.921Z,13.49
2023-05-16T19:55:50.573Z,13.33
2023-05-16T19:58:17.483Z,13.43
2023-05-16T20:00:44.608Z,13.34
2023-05-16T20:03:11.388Z,13.30
2023-05-16T20:05:38.106Z,13.38
2023-05-16T20:08:04.920Z,13.30
2023-05-16T20:10:33.000Z,13.18
2023-05-16T20:12:59.682Z,13.20
2023-05-16T20:15:26.558Z,13.11
2023-05-16T20:17:53.694Z,13.22
2023-05-16T20:20:20.609Z,13.21
2023-05-16T20:22:47.278Z,13.26
2023-05-16T20:25:14.402Z,13.14
2023-05-16T20:27:42.522Z,13.18
2023-05-16T20:30:09.755Z,13.14
2023-05-16T20:32:36.418Z,13.08
2023-05-16T20:35:03.551Z,13.19
2023-05-16T20:37:30.206Z,13.28
2023-05-16T20:39:56.866Z,13.34
2023-05-16T20:42:23.648Z,13.31
2023-05-16T20:44:51.739Z,13.32
2023-05-16T20:47:18.404Z,13.39
2023-05-16T20:49:45.027Z,13.41
2023-05-16T20:52:11.850Z,13.34
2023-05-16T20:54:38.898Z,13.32
2023-05-16T20:57:06.198Z,13.12
2023-05-16T20:59:32.940Z,13.00
2023-05-16T21:02:01.120Z,12.99
2023-05-16T21:04:28.217Z,12.97
2023-05-16T21:06:54.930Z,12.76
2023-05-16T21:09:21.774Z,12.87
2023-05-16T21:11:48.482Z,12.72
2023-05-16T21:14:15.143Z,12.56
2023-05-16T21:16:41.863Z,12.63
2023-05-16T21:19:10.101Z,12.74
2023-05-16T21:21:36.811Z,12.48
2023-05-16T21:24:03.701Z,12.51
2023-05-16T21:26:30.376Z,12.47
2023-05-16T21:28:57.129Z,12.56
2023-05-16T21:31:23.884Z,12.68
2023-05-16T21:33:50.644Z,12.35
2023-05-16T21:36:18.811Z,12.43
2023-05-16T21:38:45.449Z,12.42
2023-05-16T21:41:12.335Z,12.54
2023-05-16T21:43:39.050Z,12.28
2023-05-16T21:46:06.009Z,12.19
2023-05-16T21:48:32.813Z,12.22
2023-05-16T21:50:59.500Z,11.96
2023-05-16T21:53:27.553Z,11.83
2023-05-16T21:55:54.237Z,11.83
2023-05-16T21:58:20.916Z,11.77
2023-05-16T22:00:47.524Z,11.79
2023-05-16T22:03:14.299Z,11.65
2023-05-16T22:05:40.978Z,11.48
2023-05-16T22:08:07.635Z,11.55
2023-05-16T22:10:35.760Z,11.31
2023-05-16T22:13:02.383Z,11.37
2023-05-16T22:15:29.446Z,11.15
2023-05-16T22:17:56.400Z,11.10
2023-05-16T22:20:23.208Z,11.11
2023-05-16T22:22:49.941Z,11.11
2023-05-16T22:25:16.893Z,11.25
2023-05-16T22:27:45.130Z,11.05
2023-05-16T22:30:12.492Z,11.00
2023-05-16T22:32:39.338Z,11.10
2023-05-16T22:35:06.801Z,10.92
2023-05-16T22:37:33.457Z,10.98
2023-05-16T22:40:00.147Z,11.13
2023-05-16T22:42:26.771Z,11.15
2023-05-16T22:44:54.743Z,11.12
2023-05-16T22:47:21.579Z,11.09
2023-05-16T22:49:48.200Z,11.10
2023-05-16T22:52:14.897Z,10.98
2023-05-16T22:54:41.652Z,10.99
2023-05-16T22:57:08.298Z,10.98
2023-05-16T22:59:34.996Z,10.92
2023-05-16T23:02:03.115Z,10.98
2023-05-16T23:04:29.744Z,10.85
2023-05-16T23:06:56.440Z,10.90
2023-05-16T23:09:23.113Z,10.85
2023-05-16T23:11:49.765Z,10.85
2023-05-16T23:14:16.513Z,10.78
2023-05-16T23:16:43.191Z,10.80
2023-05-16T23:19:11.491Z,10.76
2023-05-16T23:21:38.143Z,10.65
2023-05-16T23:24:05.080Z,10.70
2023-05-16T23:26:31.947Z,10.75
2023-05-16T23:28:58.601Z,10.63
2023-05-16T23:31:25.615Z,10.74
2023-05-16T23:33:52.431Z,10.67
2023-05-16T23:36:20.596Z,10.68
2023-05-16T23:38:47.229Z,10.71
2023-05-16T23:41:14.213Z,10.70
2023-05-16T23:43:43.210Z,10.67
2023-05-16T23:46:09.913Z,10.54
2023-05-16T23:48:36.684Z,10.49
2023-05-16T23:51:03.816Z,10.46
2023-05-16T23:53:31.954Z,10.41
2023-05-16T23:55:58.622Z,10.47
2023-05-16T23:58:25.615Z,10.51
